createdAt,value
2023-03-11T00:01:10.419Z,7.63
2023-03-11T00:03:58.016Z,7.60
2023-03-11T00:06:45.376Z,8.70
2023-03-11T00:09:32.904Z,8.20
2023-03-11T00:12:20.299Z,8.00
2023-03-11T00:15:07.834Z,8.77
2023-03-11T00:17:55.214Z,8.50
2023-03-11T00:20:43.972Z,8.83
2023-03-11T00:23:32.093Z,8.63
2023-03-11T00:26:19.578Z,8.37
2023-03-11T00:29:07.030Z,9.47
2023-03-11T00:31:54.738Z,8.70
2023-03-11T00:34:42.225Z,8.90
2023-03-11T00:37:29.629Z,9.63
2023-03-11T00:40:18.440Z,8.70
2023-03-11T00:43:05.849Z,8.03
2023-03-11T00:45:53.249Z,8.20
2023-03-11T00:48:40.603Z,7.87
2023-03-11T00:51:28.205Z,7.93
2023-03-11T00:54:15.632Z,9.13
2023-03-11T00:57:02.992Z,9.60
2023-03-11T00:59:50.351Z,8.17
2023-03-11T01:02:38.243Z,8.13
2023-03-11T01:05:27.460Z,8.40
2023-03-11T01:08:14.824Z,8.63
2023-03-11T01:11:02.568Z,8.50
2023-03-11T01:13:49.930Z,8.07
2023-03-11T01:16:37.313Z,8.53
2023-03-11T01:19:24.643Z,8.37
2023-03-11T01:22:12.081Z,8.33
2023-03-11T01:24:59.424Z,8.97
2023-03-11T01:27:47.102Z,8.63
2023-03-11T01:30:34.854Z,8.87
2023-03-11T01:33:22.227Z,8.40
2023-03-11T01:36:09.742Z,9.60
2023-03-11T01:38:57.208Z,7.97
2023-03-11T01:41:44.574Z,8.07
2023-03-11T01:44:31.892Z,9.37
2023-03-11T01:47:32.621Z,8.63
2023-03-11T01:50:20.041Z,9.10
2023-03-11T01:53:07.736Z,8.23
2023-03-11T01:55:55.234Z,8.67
2023-03-11T01:58:44.907Z,8.90
2023-03-11T02:01:32.406Z,9.10
2023-03-11T02:04:20.926Z,9.20
2023-03-11T02:07:09.203Z,9.50
2023-03-11T02:09:56.616Z,10.70
2023-03-11T02:12:44.145Z,10.47
2023-03-11T02:15:31.544Z,10.67
2023-03-11T02:18:22.000Z,11.33
2023-03-11T02:21:26.801Z,11.63
2023-03-11T02:24:14.168Z,9.83
2023-03-11T02:27:01.553Z,10.03
2023-03-11T02:29:50.039Z,10.27
2023-03-11T02:32:37.892Z,10.30
2023-03-11T02:35:25.377Z,9.97
2023-03-11T02:38:13.920Z,10.30
2023-03-11T02:41:02.612Z,9.73
2023-03-11T02:43:50.355Z,8.87
2023-03-11T02:46:39.802Z,9.00
2023-03-11T02:49:27.459Z,8.83
2023-03-11T02:52:14.805Z,9.70
2023-03-11T02:55:02.533Z,8.83
2023-03-11T02:57:49.955Z,8.80
2023-03-11T03:00:37.469Z,8.27
2023-03-11T03:03:25.384Z,8.13
2023-03-11T03:06:12.795Z,8.97
2023-03-11T03:09:00.144Z,9.03
2023-03-11T03:11:47.490Z,8.33
2023-03-11T03:14:35.493Z,9.90
2023-03-11T03:17:22.917Z,8.63
2023-03-11T03:20:11.607Z,8.80
2023-03-11T03:22:58.984Z,9.17
2023-03-11T03:25:46.371Z,9.47
2023-03-11T03:28:33.771Z,9.87
2023-03-11T03:31:21.202Z,9.67
2023-03-11T03:34:08.796Z,10.00
2023-03-11T03:36:56.136Z,10.00
2023-03-11T03:39:43.492Z,9.10
2023-03-11T03:42:31.721Z,9.80
2023-03-11T03:45:19.065Z,9.30
2023-03-11T03:48:07.132Z,9.73
2023-03-11T03:50:54.564Z,10.57
2023-03-11T03:53:41.995Z,9.60
2023-03-11T03:56:29.373Z,10.77
2023-03-11T03:59:16.733Z,10.60
2023-03-11T04:02:04.104Z,10.60
2023-03-11T04:04:52.241Z,10.30
2023-03-11T04:07:39.572Z,11.17
2023-03-11T04:10:26.928Z,10.67
2023-03-11T04:13:14.271Z,10.67
2023-03-11T04:16:03.567Z,12.20
2023-03-11T04:18:51.320Z,11.10
2023-03-11T04:21:38.705Z,11.60
2023-03-11T04:24:26.089Z,11.40
2023-03-11T04:27:13.438Z,11.30
2023-03-11T04:30:00.774Z,11.67
2023-03-11T04:32:48.154Z,11.30
2023-03-11T04:35:35.532Z,10.73
2023-03-11T04:38:22.889Z,11.57
2023-03-11T04:41:10.268Z,11.00
2023-03-11T04:43:57.596Z,10.40
2023-03-11T04:46:44.929Z,10.50
2023-03-11T04:49:32.261Z,9.53
2023-03-11T04:52:19.604Z,9.73
2023-03-11T04:55:07.401Z,9.83
2023-03-11T04:57:54.744Z,10.37
2023-03-11T05:00:42.128Z,9.70
2023-03-11T05:03:29.606Z,9.53
2023-03-11T05:06:17.088Z,9.73
2023-03-11T05:09:04.790Z,10.00
2023-03-11T05:11:52.158Z,10.10
2023-03-11T05:14:40.709Z,9.63
2023-03-11T05:17:28.362Z,10.40
2023-03-11T05:20:16.981Z,9.87
2023-03-11T05:23:04.495Z,9.97
2023-03-11T05:25:51.933Z,9.93
2023-03-11T05:28:39.285Z,10.00
2023-03-11T05:31:26.684Z,9.93
2023-03-11T05:34:14.441Z,9.87
2023-03-11T05:37:03.132Z,9.57
2023-03-11T05:39:52.057Z,9.03
2023-03-11T05:42:41.315Z,9.03
2023-03-11T05:45:29.304Z,9.27
2023-03-11T05:48:16.639Z,9.37
2023-03-11T05:51:07.567Z,9.40
2023-03-11T05:53:55.048Z,9.53
2023-03-11T05:56:43.103Z,8.90
2023-03-11T05:59:32.344Z,8.70
2023-03-11T06:02:21.016Z,8.27
2023-03-11T06:05:10.986Z,8.60
2023-03-11T06:07:59.602Z,8.90
2023-03-11T06:10:48.939Z,8.67
2023-03-11T06:13:37.026Z,9.03
2023-03-11T06:16:25.170Z,8.13
2023-03-11T06:19:12.674Z,8.87
2023-03-11T06:22:00.037Z,8.67
2023-03-11T06:24:47.375Z,8.93
2023-03-11T06:27:34.718Z,9.13
2023-03-11T06:30:22.304Z,8.37
2023-03-11T06:33:09.719Z,7.73
2023-03-11T06:35:58.129Z,8.43
2023-03-11T06:38:49.979Z,8.70
2023-03-11T06:41:37.382Z,8.50
2023-03-11T06:44:25.451Z,8.63
2023-03-11T06:47:12.813Z,8.57
2023-03-11T06:50:06.021Z,7.87
2023-03-11T06:52:53.396Z,8.53
2023-03-11T06:55:40.728Z,8.87
2023-03-11T06:58:28.291Z,7.63
2023-03-11T07:01:25.873Z,8.17
2023-03-11T07:04:13.287Z,8.30
2023-03-11T07:07:00.648Z,8.00
2023-03-11T07:09:48.004Z,8.47
2023-03-11T07:12:35.341Z,7.77
2023-03-11T07:15:22.673Z,8.30
2023-03-11T07:18:09.988Z,8.20
2023-03-11T07:20:57.761Z,8.10
2023-03-11T07:23:45.470Z,8.40
2023-03-11T07:26:34.301Z,7.37
2023-03-11T07:29:21.703Z,7.93
2023-03-11T07:32:09.681Z,8.10
2023-03-11T07:34:57.068Z,8.07
2023-03-11T07:37:44.385Z,8.13
2023-03-11T07:40:31.743Z,8.00
2023-03-11T07:43:19.729Z,7.97
2023-03-11T07:46:08.912Z,7.57
2023-03-11T07:48:56.515Z,7.53
2023-03-11T07:51:44.763Z,7.27
2023-03-11T07:54:32.170Z,7.73
2023-03-11T07:57:19.577Z,6.83
2023-03-11T08:00:07.273Z,6.60
2023-03-11T08:02:54.607Z,6.67
2023-03-11T08:05:42.258Z,6.77
2023-03-11T08:08:29.656Z,6.43
2023-03-11T08:11:17.315Z,6.40
2023-03-11T08:14:04.822Z,5.97
2023-03-11T08:16:52.186Z,6.77
2023-03-11T08:19:39.542Z,6.63
2023-03-11T08:22:26.886Z,5.47
2023-03-11T08:25:14.238Z,6.27
2023-03-11T08:28:01.676Z,6.33
2023-03-11T08:30:49.041Z,4.90
2023-03-11T08:33:36.450Z,5.37
2023-03-11T08:36:24.042Z,6.00
2023-03-11T08:39:11.514Z,4.70
2023-03-11T08:41:59.740Z,4.70
2023-03-11T08:44:47.145Z,5.00
2023-03-11T08:47:36.136Z,4.77
2023-03-11T08:50:23.524Z,4.13
2023-03-11T08:53:11.043Z,4.40
2023-03-11T08:55:58.401Z,3.97
2023-03-11T08:58:46.740Z,4.30
2023-03-11T09:01:34.073Z,4.27
2023-03-11T09:04:21.469Z,4.60
2023-03-11T09:07:08.823Z,4.97
2023-03-11T09:09:57.468Z,4.30
2023-03-11T09:12:44.900Z,4.77
2023-03-11T09:15:32.438Z,4.63
2023-03-11T09:18:19.787Z,3.93
2023-03-11T09:21:07.160Z,4.10
2023-03-11T09:23:54.521Z,3.27
2023-03-11T09:26:41.874Z,3.90
2023-03-11T09:29:29.643Z,3.00
2023-03-11T09:32:17.463Z,3.47
2023-03-11T09:35:06.224Z,3.60
2023-03-11T09:37:54.560Z,3.17
2023-03-11T09:40:47.652Z,3.57
2023-03-11T09:43:48.088Z,3.90
2023-03-11T09:46:55.539Z,3.90
2023-03-11T09:50:02.111Z,3.73
2023-03-11T09:52:50.456Z,3.83
2023-03-11T09:55:40.563Z,3.50
2023-03-11T09:58:37.225Z,3.87
2023-03-11T10:01:42.546Z,3.67
2023-03-11T10:04:36.101Z,3.53
2023-03-11T10:07:26.652Z,3.37
2023-03-11T10:10:15.203Z,3.10
2023-03-11T10:13:08.858Z,3.53
2023-03-11T10:15:58.937Z,3.20
2023-03-11T10:19:00.710Z,3.10
2023-03-11T10:21:48.030Z,3.13
2023-03-11T10:24:47.035Z,2.80
2023-03-11T10:27:42.094Z,3.03
2023-03-11T10:30:35.489Z,3.20
2023-03-11T10:33:29.992Z,2.90
2023-03-11T10:36:24.162Z,2.80
2023-03-11T10:39:12.348Z,2.90
2023-03-11T10:42:04.010Z,2.97
2023-03-11T10:44:52.634Z,3.30
2023-03-11T10:47:40.141Z,3.77
2023-03-11T10:50:27.633Z,3.10
2023-03-11T10:53:17.028Z,5.47
2023-03-11T10:56:04.489Z,3.40
2023-03-11T10:58:51.858Z,3.07
2023-03-11T11:01:39.418Z,8.20
2023-03-11T11:04:28.631Z,3.20
2023-03-11T11:07:34.632Z,3.13
2023-03-11T11:10:23.593Z,2.73
2023-03-11T11:13:13.758Z,3.23
2023-03-11T11:16:02.805Z,3.27
2023-03-11T11:18:59.396Z,3.20
2023-03-11T11:21:52.166Z,3.10
2023-03-11T11:24:44.334Z,3.60
2023-03-11T11:27:32.796Z,3.00
2023-03-11T11:30:20.205Z,2.70
2023-03-11T11:33:25.315Z,2.90
2023-03-11T11:36:15.009Z,3.17
2023-03-11T11:39:05.044Z,3.03
2023-03-11T11:41:53.499Z,3.70
2023-03-11T11:44:42.198Z,13.37
2023-03-11T11:47:33.780Z,7.40
2023-03-11T11:50:39.965Z,2.70
2023-03-11T11:53:38.043Z,3.10
2023-03-11T11:56:26.002Z,2.60
2023-03-11T11:59:21.583Z,4.70
2023-03-11T12:02:27.768Z,2.40
2023-03-11T12:05:19.791Z,4.77
2023-03-11T12:08:13.320Z,6.30
2023-03-11T12:11:06.554Z,2.77
2023-03-11T12:14:03.065Z,4.03
2023-03-11T12:17:03.858Z,2.93
2023-03-11T12:20:03.944Z,2.00
2023-03-11T12:23:06.641Z,1.80
2023-03-11T12:26:09.090Z,2.07
2023-03-11T12:29:04.700Z,2.20
2023-03-11T12:31:52.641Z,2.13
2023-03-11T12:34:40.081Z,2.20
2023-03-11T12:37:27.440Z,1.80
2023-03-11T12:40:33.879Z,1.70
2023-03-11T12:43:33.736Z,1.90
2023-03-11T12:46:21.743Z,1.80
2023-03-11T12:49:12.695Z,1.90
2023-03-11T12:52:05.161Z,2.00
2023-03-11T12:55:03.516Z,18.10
2023-03-11T12:57:55.093Z,2.93
2023-03-11T13:00:48.471Z,3.93
2023-03-11T13:03:46.093Z,2.50
2023-03-11T13:06:39.913Z,4.60
2023-03-11T13:09:27.367Z,5.03
2023-03-11T13:12:33.749Z,7.30
2023-03-11T13:15:21.123Z,4.37
2023-03-11T13:18:14.545Z,2.33
2023-03-11T13:21:02.776Z,1.53
2023-03-11T13:23:50.643Z,1.97
2023-03-11T13:26:42.945Z,3.57
2023-03-11T13:29:48.989Z,1.53
2023-03-11T13:32:42.664Z,1.70
2023-03-11T13:35:36.059Z,1.33
2023-03-11T13:38:42.063Z,1.60
2023-03-11T13:41:35.162Z,1.63
2023-03-11T13:44:22.515Z,1.30
2023-03-11T13:47:19.924Z,1.30
2023-03-11T13:50:14.332Z,1.30
2023-03-11T13:53:03.768Z,1.50
2023-03-11T13:55:51.141Z,1.47
2023-03-11T13:58:38.472Z,1.33
2023-03-11T14:01:26.179Z,1.00
2023-03-11T14:04:13.637Z,1.67
2023-03-11T14:07:01.041Z,1.40
2023-03-11T14:09:48.388Z,1.33
2023-03-11T14:12:35.712Z,1.50
2023-03-11T14:15:26.891Z,1.27
2023-03-11T14:18:32.688Z,1.50
2023-03-11T14:21:20.974Z,1.40
2023-03-11T14:24:16.664Z,1.10
2023-03-11T14:27:07.931Z,0.97
2023-03-11T14:29:55.293Z,1.13
2023-03-11T14:32:42.653Z,0.80
2023-03-11T14:35:30.981Z,1.33
2023-03-11T14:38:28.841Z,1.40
2023-03-11T14:41:16.464Z,1.27
2023-03-11T14:44:04.162Z,0.60
2023-03-11T14:46:52.165Z,1.17
2023-03-11T14:49:40.161Z,1.03
2023-03-11T14:52:47.880Z,1.20
2023-03-11T14:55:53.846Z,0.77
2023-03-11T14:58:42.409Z,1.00
2023-03-11T15:01:31.456Z,0.80
2023-03-11T15:04:22.847Z,0.70
2023-03-11T15:07:10.446Z,1.20
2023-03-11T15:09:57.961Z,1.10
2023-03-11T15:12:45.794Z,1.00
2023-03-11T15:15:33.277Z,0.70
2023-03-11T15:18:25.395Z,1.40
2023-03-11T15:21:20.499Z,1.50
2023-03-11T15:24:18.655Z,1.13
2023-03-11T15:27:07.645Z,0.90
2023-03-11T15:29:55.066Z,1.10
2023-03-11T15:32:42.967Z,1.33
2023-03-11T15:35:31.298Z,0.93
2023-03-11T15:38:25.251Z,1.60
2023-03-11T15:41:12.599Z,1.17
2023-03-11T15:44:02.286Z,1.33
2023-03-11T15:46:49.682Z,1.10
2023-03-11T15:49:37.002Z,1.60
2023-03-11T15:52:24.412Z,1.17
2023-03-11T15:55:11.885Z,1.13
2023-03-11T15:58:09.300Z,1.03
2023-03-11T16:00:57.333Z,1.10
2023-03-11T16:03:44.718Z,1.37
2023-03-11T16:06:32.184Z,1.13
2023-03-11T16:09:19.541Z,1.30
2023-03-11T16:12:13.799Z,1.20
2023-03-11T16:15:02.295Z,1.30
2023-03-11T16:17:50.994Z,1.10
2023-03-11T16:20:56.827Z,0.70
2023-03-11T16:23:51.674Z,0.97
2023-03-11T16:26:39.457Z,1.33
2023-03-11T16:29:26.992Z,0.80
2023-03-11T16:32:14.781Z,1.97
2023-03-11T16:35:02.657Z,0.80
2023-03-11T16:37:50.285Z,1.13
2023-03-11T16:40:37.834Z,1.00
2023-03-11T16:43:25.672Z,0.83
2023-03-11T16:46:13.098Z,1.40
2023-03-11T16:49:00.619Z,1.20
2023-03-11T16:51:48.043Z,1.43
2023-03-11T16:54:35.434Z,1.10
2023-03-11T16:57:23.032Z,1.00
2023-03-11T17:00:10.876Z,1.40
2023-03-11T17:02:58.223Z,0.97
2023-03-11T17:05:45.815Z,1.23
2023-03-11T17:08:33.240Z,1.33
2023-03-11T17:11:21.517Z,1.20
2023-03-11T17:14:16.299Z,1.40
2023-03-11T17:17:04.300Z,1.60
2023-03-11T17:19:51.698Z,1.60
2023-03-11T17:22:39.065Z,2.40
2023-03-11T17:25:26.409Z,2.57
2023-03-11T17:28:13.949Z,1.80
2023-03-11T17:31:01.786Z,2.10
2023-03-11T17:33:49.466Z,2.00
2023-03-11T17:36:36.925Z,2.87
2023-03-11T17:39:24.614Z,2.03
2023-03-11T17:42:12.101Z,2.40
2023-03-11T17:44:59.581Z,2.10
2023-03-11T17:47:46.950Z,2.53
2023-03-11T17:50:38.522Z,2.27
2023-03-11T17:53:26.231Z,1.90
2023-03-11T17:56:14.890Z,2.50
2023-03-11T17:59:02.250Z,2.47
2023-03-11T18:01:49.624Z,2.50
2023-03-11T18:04:39.343Z,2.43
2023-03-11T18:07:26.759Z,2.73
2023-03-11T18:10:14.847Z,2.73
2023-03-11T18:13:02.172Z,2.67
2023-03-11T18:15:57.169Z,2.90
2023-03-11T18:18:45.082Z,2.83
2023-03-11T18:21:32.475Z,2.90
2023-03-11T18:24:19.828Z,3.03
2023-03-11T18:27:07.226Z,2.50
2023-03-11T18:29:54.589Z,3.33
2023-03-11T18:32:42.051Z,3.10
2023-03-11T18:35:29.669Z,2.80
2023-03-11T18:38:17.052Z,3.10
2023-03-11T18:41:04.458Z,2.80
2023-03-11T18:43:58.801Z,3.93
2023-03-11T18:46:46.133Z,2.83
2023-03-11T18:49:33.473Z,2.80
2023-03-11T18:52:21.181Z,3.33
2023-03-11T18:55:08.716Z,2.90
2023-03-11T18:57:56.054Z,2.83
2023-03-11T19:00:43.451Z,3.10
2023-03-11T19:03:30.785Z,3.13
2023-03-11T19:06:18.535Z,2.83
2023-03-11T19:09:06.573Z,3.27
2023-03-11T19:11:53.960Z,2.73
2023-03-11T19:14:41.382Z,2.87
2023-03-11T19:17:28.720Z,2.87
2023-03-11T19:20:16.086Z,2.83
2023-03-11T19:23:03.704Z,2.80
2023-03-11T19:26:02.476Z,3.75
2023-03-11T19:28:50.305Z,2.93
2023-03-11T19:31:37.699Z,2.57
2023-03-11T19:34:27.016Z,2.70
2023-03-11T19:37:14.505Z,2.50
2023-03-11T19:40:01.899Z,2.60
2023-03-11T19:42:49.887Z,2.30
2023-03-11T19:45:37.320Z,2.17
2023-03-11T19:48:24.816Z,2.13
2023-03-11T19:51:12.529Z,2.33
2023-03-11T19:53:59.873Z,2.00
2023-03-11T19:56:47.928Z,2.53
2023-03-11T19:59:35.484Z,2.20
2023-03-11T20:02:22.892Z,2.40
2023-03-11T20:05:10.515Z,2.50
2023-03-11T20:07:58.043Z,2.13
2023-03-11T20:10:47.150Z,2.10
2023-03-11T20:13:35.558Z,2.40
2023-03-11T20:16:22.989Z,2.53
2023-03-11T20:19:10.480Z,2.43
2023-03-11T20:21:57.836Z,2.10
2023-03-11T20:24:45.312Z,2.30
2023-03-11T20:27:32.681Z,2.50
2023-03-11T20:30:20.491Z,2.23
2023-03-11T20:33:08.398Z,2.00
2023-03-11T20:36:03.513Z,2.27
2023-03-11T20:38:52.208Z,2.40
2023-03-11T20:41:40.581Z,2.87
2023-03-11T20:44:27.922Z,2.87
2023-03-11T20:47:15.392Z,3.10
2023-03-11T20:50:02.907Z,2.97
2023-03-11T20:52:50.794Z,3.40
2023-03-11T20:55:40.812Z,2.87
2023-03-11T20:58:28.264Z,2.93
2023-03-11T21:01:17.818Z,3.20
2023-03-11T21:04:05.536Z,3.10
2023-03-11T21:06:54.735Z,2.87
2023-03-11T21:09:42.205Z,3.03
2023-03-11T21:12:31.342Z,3.00
2023-03-11T21:15:19.283Z,3.67
2023-03-11T21:18:06.968Z,3.80
2023-03-11T21:20:54.386Z,3.40
2023-03-11T21:23:43.645Z,3.77
2023-03-11T21:26:31.168Z,3.50
2023-03-11T21:29:18.555Z,4.07
2023-03-11T21:32:06.238Z,4.07
2023-03-11T21:35:00.452Z,4.13
2023-03-11T21:37:48.011Z,3.87
2023-03-11T21:43:42.446Z,4.20
2023-03-11T21:46:31.229Z,4.37
2023-03-11T21:49:18.744Z,4.07
2023-03-11T21:52:06.584Z,4.03
2023-03-11T21:54:54.013Z,4.27
2023-03-11T21:57:41.456Z,3.60
2023-03-11T22:00:28.975Z,3.97
2023-03-11T22:03:16.532Z,3.90
2023-03-11T22:06:05.552Z,4.03
2023-03-11T22:08:53.067Z,4.03
2023-03-11T22:11:40.593Z,3.53
2023-03-11T22:14:28.020Z,4.50
2023-03-11T22:17:15.728Z,4.30
2023-03-11T22:20:05.426Z,4.20
2023-03-11T22:22:54.178Z,4.10
2023-03-11T22:25:41.544Z,3.97
2023-03-11T22:28:28.970Z,4.20
2023-03-11T22:31:18.425Z,4.27
2023-03-11T22:34:05.903Z,3.87
2023-03-11T22:36:53.231Z,4.47
2023-03-11T22:39:40.583Z,4.60
2023-03-11T22:42:27.951Z,4.23
2023-03-11T22:45:15.289Z,5.07
2023-03-11T22:48:02.661Z,4.37
2023-03-11T22:50:50.048Z,4.50
2023-03-11T22:53:37.409Z,4.20
2023-03-11T22:56:24.973Z,4.77
2023-03-11T22:59:12.402Z,5.20
2023-03-11T23:01:59.845Z,4.00
2023-03-11T23:04:47.268Z,4.03
2023-03-11T23:07:34.856Z,4.10
2023-03-11T23:10:22.315Z,4.23
2023-03-11T23:13:10.207Z,4.07
2023-03-11T23:15:57.613Z,4.07
2023-03-11T23:18:45.810Z,3.93
2023-03-11T23:21:33.308Z,3.90
2023-03-11T23:24:20.651Z,4.40
2023-03-11T23:27:08.035Z,4.10
2023-03-11T23:29:55.426Z,4.23
2023-03-11T23:32:42.971Z,4.27
2023-03-11T23:35:30.816Z,4.30
2023-03-11T23:38:18.239Z,4.17
2023-03-11T23:41:09.390Z,4.30
2023-03-11T23:43:57.125Z,4.23
2023-03-11T23:46:44.548Z,4.20
2023-03-11T23:49:31.961Z,4.33
2023-03-11T23:52:19.334Z,4.13
2023-03-11T23:55:07.009Z,4.30
2023-03-11T23:57:54.425Z,4.17
